Time;durP1;ratioP1;P1;durP2;ratioP2;P2;SDS_P1;SDS_P2;PMS_P1;PMS_P2;Temp;Humidity;BMP_temperature;BMP_pressure;BME280_temperature;BME280_humidity;BME280_pressure;Samples;Min_cycle;Max_cycle;Signal;HPM_P1;HPM_P2
2022/02/17 00:00:26;;;;;;;55.67;20.83;;;;;;;-6.97;67.64;100408.03;4952589;28;20104;-87
2022/02/17 00:02:53;;;;;;;59.67;22.80;;;;;;;-7.09;67.58;100401.03;5000992;28;20132;-88
2022/02/17 00:05:20;;;;;;;66.45;23.25;;;;;;;-7.12;67.70;100401.00;4980312;28;20061;-88
2022/02/17 00:07:47;;;;;;;65.55;23.60;;;;;;;-7.11;67.89;100404.47;4963181;28;20115;-88
2022/02/17 00:10:14;;;;;;;67.60;26.15;;;;;;;-7.09;68.01;100411.41;4963863;28;20054;-90
2022/02/17 00:12:40;;;;;;;92.63;35.88;;;;;;;-7.03;67.81;100404.53;4969595;28;20073;-88
2022/02/17 00:15:07;;;;;;;131.23;43.45;;;;;;;-7.02;67.33;100398.50;5005832;28;20049;-89
2022/02/17 00:17:33;;;;;;;154.93;53.25;;;;;;;-7.16;67.28;100390.56;4968154;28;20108;-88
2022/02/17 00:19:59;;;;;;;146.70;52.95;;;;;;;-7.31;67.06;100404.28;4967575;28;20046;-88
2022/02/17 00:22:25;;;;;;;142.32;55.80;;;;;;;-7.26;67.39;100387.00;4948932;28;20101;-89
2022/02/17 00:24:52;;;;;;;149.35;55.90;;;;;;;-7.29;67.01;100405.19;4962181;28;20494;-88
2022/02/17 00:27:18;;;;;;;146.23;50.67;;;;;;;-7.23;67.16;100400.03;4995445;28;20053;-88
2022/02/17 00:29:44;;;;;;;146.73;53.83;;;;;;;-7.29;66.83;100404.31;4978323;28;20046;-88
2022/02/17 00:32:10;;;;;;;123.20;50.63;;;;;;;-7.45;67.24;100392.91;4962595;28;20046;-88
2022/02/17 00:34:36;;;;;;;127.85;48.38;;;;;;;-7.41;67.44;100392.06;4962105;28;20038;-89
2022/02/17 00:37:03;;;;;;;139.57;48.95;;;;;;;-7.29;67.40;100402.59;4977682;28;20046;-88
2022/02/17 00:39:33;;;;;;;110.47;44.30;;;;;;;-7.16;67.45;100401.81;4961911;28;20505;-88
2022/02/17 00:41:59;;;;;;;118.65;43.97;;;;;;;-7.10;67.03;100401.88;4961936;28;20070;-89
2022/02/17 00:44:25;;;;;;;104.30;35.70;;;;;;;-7.09;66.77;100405.34;4946026;28;20557;-88
2022/02/17 00:46:55;;;;;;;111.55;40.80;;;;;;;-7.21;66.03;100403.53;4946471;28;20054;-86
2022/02/17 00:49:23;;;;;;;104.35;37.72;;;;;;;-7.23;66.40;100409.56;4964794;28;20057;-89
2022/02/17 00:51:50;;;;;;;78.45;31.83;;;;;;;-7.29;66.48;100400.00;4946701;28;20082;-91
2022/02/17 00:54:18;;;;;;;73.28;31.52;;;;;;;-7.35;66.10;100405.13;4930854;28;20114;-88
2022/02/17 00:56:45;;;;;;;65.57;27.17;;;;;;;-7.42;66.49;100409.38;4977931;28;20058;-83
2022/02/17 00:59:12;;;;;;;59.08;25.75;;;;;;;-7.39;66.29;100416.34;4962176;28;20050;-93
2022/02/17 01:01:43;;;;;;;54.72;23.23;;;;;;;-7.40;65.73;100417.22;4930434;28;20042;-90
2022/02/17 01:04:29;;;;;;;47.35;21.70;;;;;;;-7.40;65.86;100406.81;4984681;28;20054;-89
2022/02/17 01:06:55;;;;;;;40.47;17.50;;;;;;;-7.46;65.70;100407.63;5000978;28;20076;-89
2022/02/17 01:09:23;;;;;;;38.60;16.73;;;;;;;-7.48;65.73;100387.69;4966710;28;20490;-91
2022/02/17 01:12:09;;;;;;;38.80;17.27;;;;;;;-7.64;65.08;100397.91;4981906;28;20061;-88
2022/02/17 01:14:35;;;;;;;30.80;15.00;;;;;;;-7.63;65.55;100393.63;4978469;28;20065;-87
2022/02/17 01:17:01;;;;;;;36.40;15.73;;;;;;;-7.66;65.24;100410.00;4963160;28;20077;-86
2022/02/17 01:19:30;;;;;;;34.25;15.77;;;;;;;-7.73;65.05;100408.22;4978351;28;20085;-88
2022/02/17 01:21:56;;;;;;;43.53;17.73;;;;;;;-7.75;65.17;100409.91;4962451;28;20517;-89
2022/02/17 01:24:23;;;;;;;42.80;17.10;;;;;;;-7.79;65.00;100405.53;4961592;28;20489;-87
2022/02/17 01:26:49;;;;;;;39.15;18.17;;;;;;;-7.89;65.22;100411.50;4961629;28;20038;-87
2022/02/17 01:29:17;;;;;;;58.80;21.98;;;;;;;-8.02;65.34;100410.47;4977006;28;20050;-88
2022/02/17 01:31:43;;;;;;;49.40;20.13;;;;;;;-8.21;65.71;100416.28;4976974;28;20096;-86
2022/02/17 01:34:12;;;;;;;;;;;;;;;-8.25;66.06;100417.94;4961463;28;20069;-83
2022/02/17 01:36:47;;;;;;;74.35;24.23;;;;;;;-8.24;66.83;100421.41;4946611;28;20450;-86
2022/02/17 01:39:13;;;;;;;79.10;27.63;;;;;;;-8.28;66.71;100415.31;4945095;28;20137;-87
2022/02/17 01:41:42;;;;;;;87.43;29.70;;;;;;;-8.31;66.99;100417.91;4977987;28;20049;-88
2022/02/17 01:44:13;;;;;;;58.92;24.23;;;;;;;-8.36;67.25;100422.13;4991014;28;20050;-83
2022/02/17 01:46:41;;;;;;;90.68;30.00;;;;;;;-8.39;67.49;100414.34;4985807;28;20102;-86
2022/02/17 01:49:09;;;;;;;98.18;33.53;;;;;;;-8.36;67.45;100403.97;5008179;28;20137;-85
2022/02/17 01:51:37;;;;;;;105.07;33.25;;;;;;;-8.31;67.48;100410.13;4962564;28;20046;-87
2022/02/17 01:54:04;;;;;;;111.30;33.30;;;;;;;-8.24;67.49;100419.69;4960884;28;20042;-87
2022/02/17 01:56:32;;;;;;;96.82;30.55;;;;;;;-8.21;67.38;100409.34;4960092;28;20061;-87
2022/02/17 01:59:06;;;;;;;101.43;31.63;;;;;;;-8.24;67.60;100403.25;4946721;28;20050;-86
2022/02/17 02:01:35;;;;;;;97.28;30.75;;;;;;;-8.20;67.44;100411.09;4961065;28;20038;-88
2022/02/17 02:04:02;;;;;;;85.93;29.00;;;;;;;-8.29;67.38;100410.13;4961610;28;20046;-86
2022/02/17 02:06:28;;;;;;;95.72;30.00;;;;;;;-8.36;67.31;100399.66;4977059;28;20130;-89
2022/02/17 02:09:01;;;;;;;78.93;27.45;;;;;;;-8.47;67.42;100400.41;4962474;28;20056;-89
2022/02/17 02:11:37;;;;;;;84.70;28.23;;;;;;;-8.55;67.83;100402.88;4962252;28;20050;-89
2022/02/17 02:14:14;;;;;;;79.05;28.83;;;;;;;-8.54;67.82;100398.56;4962355;28;20068;-89
2022/02/17 02:16:42;;;;;;;67.30;26.90;;;;;;;-8.48;67.86;100401.25;4945205;28;20050;-88
2022/02/17 02:19:09;;;;;;;74.50;27.05;;;;;;;-8.52;67.73;100387.38;4979064;28;20050;-90
2022/02/17 02:21:38;;;;;;;76.90;27.15;;;;;;;-8.77;67.92;100406.88;4977067;28;20402;-87
2022/02/17 02:24:04;;;;;;;75.47;29.10;;;;;;;-8.67;68.33;100403.59;4961732;28;20053;-88
2022/02/17 02:26:30;;;;;;;76.82;29.33;;;;;;;-8.74;68.23;100411.25;4945520;28;20181;-87
2022/02/17 02:28:59;;;;;;;85.18;28.15;;;;;;;-8.90;68.65;100402.38;4961229;28;20089;-87
2022/02/17 02:31:25;;;;;;;78.85;29.33;;;;;;;-8.84;68.88;100405.94;4944759;28;20133;-88
2022/02/17 02:33:55;;;;;;;74.30;27.25;;;;;;;-8.76;68.65;100399.97;4960816;28;20042;-86
2022/02/17 02:36:22;;;;;;;65.20;25.40;;;;;;;-8.65;68.29;100393.22;4945641;28;20200;-88
2022/02/17 02:38:49;;;;;;;96.65;25.20;;;;;;;-8.50;68.13;100405.53;4944756;28;20050;-90
2022/02/17 02:41:17;;;;;;;65.20;21.33;;;;;;;-8.41;68.00;100396.19;4977689;28;20046;-86
2022/02/17 02:43:49;;;;;;;55.55;21.92;;;;;;;-8.50;66.73;100389.97;4945615;28;20185;-88
2022/02/17 02:46:18;;;;;;;60.47;19.67;;;;;;;-8.62;66.73;100401.91;4977787;28;20047;-89
2022/02/17 02:48:45;;;;;;;48.05;19.50;;;;;;;-8.69;66.67;100402.69;4976228;28;20046;-86
2022/02/17 02:51:13;;;;;;;43.15;17.45;;;;;;;-8.73;66.69;100402.63;4976705;28;20061;-90
2022/02/17 02:53:40;;;;;;;40.08;18.23;;;;;;;-8.70;66.73;100403.53;4978618;28;20125;-93
2022/02/17 02:56:06;;;;;;;45.33;17.95;;;;;;;-8.73;66.90;100403.47;4960880;28;20143;-90
2022/02/17 02:58:33;;;;;;;47.22;18.45;;;;;;;-8.69;67.00;100405.28;4961262;28;20050;-88
2022/02/17 03:00:59;;;;;;;45.13;17.83;;;;;;;-8.62;67.02;100394.16;4963272;28;20045;-84
2022/02/17 03:03:25;;;;;;;39.15;16.25;;;;;;;-8.52;66.39;100402.06;4980654;28;20085;-85
2022/02/17 03:05:51;;;;;;;39.70;16.63;;;;;;;-8.50;66.15;100402.94;4960286;28;20463;-84
2022/02/17 03:08:17;;;;;;;41.80;18.15;;;;;;;-8.48;66.03;100407.31;4944650;28;20082;-86
2022/02/17 03:10:45;;;;;;;40.28;17.40;;;;;;;-8.54;65.60;100402.03;4977511;28;20074;-83
2022/02/17 03:13:46;;;;;;;39.60;17.60;;;;;;;-8.58;65.60;100400.25;4968343;28;20049;-83
2022/02/17 03:16:12;;;;;;;33.60;14.48;;;;;;;-8.64;65.75;100407.97;4959959;28;20049;-82
2022/02/17 03:18:39;;;;;;;49.60;18.95;;;;;;;-8.67;65.97;100389.75;4944532;28;20105;-89
2022/02/17 03:21:12;;;;;;;54.40;19.38;;;;;;;-8.62;65.78;100391.56;4946910;28;20045;-85
2022/02/17 03:23:39;;;;;;;47.47;19.30;;;;;;;-8.59;65.99;100391.59;4960386;28;20099;-87
2022/02/17 03:26:11;;;;;;;53.42;20.40;;;;;;;-8.65;65.81;100385.44;4960999;28;20486;-83
2022/02/17 03:28:38;;;;;;;46.20;19.63;;;;;;;-8.57;66.11;100389.06;4944139;28;20043;-86
2022/02/17 03:31:05;;;;;;;53.75;20.83;;;;;;;-8.56;65.97;100391.66;4944537;28;20047;-82
2022/02/17 03:33:34;;;;;;;;;;;;;;;-8.60;65.59;100384.69;4961399;28;20065;-81
2022/02/17 03:36:02;;;;;;;44.20;14.85;;;;;;;-8.70;65.27;100385.41;4976886;28;19922;-84
2022/02/17 03:38:30;;;;;;;41.63;19.42;;;;;;;-8.77;65.04;100380.97;4960040;28;20047;-83
2022/02/17 03:40:58;;;;;;;67.43;19.25;;;;;;;-8.90;65.34;100379.06;4944599;28;20074;-84
2022/02/17 03:43:32;;;;;;;64.78;20.38;;;;;;;-8.76;65.88;100393.09;4944850;28;20047;-89
2022/02/17 03:46:00;;;;;;;48.13;18.15;;;;;;;-8.70;65.67;100387.13;4944679;28;20129;-82
2022/02/17 03:48:28;;;;;;;45.80;18.98;;;;;;;-8.69;65.64;100381.06;4961204;28;20120;-89
2022/02/17 03:50:59;;;;;;;58.95;24.88;;;;;;;-8.65;65.85;100383.75;4930699;28;20137;-90
2022/02/17 03:53:26;;;;;;;48.22;17.88;;;;;;;-8.58;65.72;100382.97;4960379;28;20387;-92
2022/02/17 03:55:52;;;;;;;43.58;17.33;;;;;;;-8.54;65.27;100381.28;4973538;28;20117;-84
2022/02/17 04:01:32;;;;;;;45.38;17.35;;;;;;;-8.56;65.20;100373.50;4969838;28;20101;-81
2022/02/17 04:04:00;;;;;;;40.30;16.35;;;;;;;-8.51;65.37;100380.47;4956381;28;20047;-81
2022/02/17 04:06:27;;;;;;;42.13;17.05;;;;;;;-8.64;64.71;100376.84;4923994;29;20070;-82
2022/02/17 04:08:53;;;;;;;38.92;15.00;;;;;;;-8.73;64.73;100376.69;4971612;28;20404;-82
2022/02/17 04:11:24;;;;;;;;;;;;;;;-8.66;64.65;100369.03;4955273;28;20039;-81
2022/02/17 04:13:52;;;;;;;31.02;13.23;;;;;;;-8.74;64.69;100374.97;4940193;29;19923;-82
2022/02/17 04:16:26;;;;;;;38.10;15.45;;;;;;;-8.79;64.75;100369.72;4955623;28;20051;-82
2022/02/17 04:19:21;;;;;;;36.10;14.25;;;;;;;-8.74;64.79;100370.66;4917278;28;20508;-79
2022/02/17 04:22:04;;;;;;;36.75;15.35;;;;;;;-8.69;64.72;100376.75;4971504;28;20062;-83
2022/02/17 04:24:45;;;;;;;37.05;15.35;;;;;;;-8.63;64.58;100374.28;4925705;29;20125;-81
2022/02/17 04:27:14;;;;;;;40.58;15.95;;;;;;;-8.63;64.49;100368.22;4940336;29;20075;-81
2022/02/17 04:29:42;;;;;;;34.25;13.80;;;;;;;-8.62;64.28;100364.75;4955553;29;20047;-81
2022/02/17 04:32:15;;;;;;;39.67;13.88;;;;;;;-8.46;64.06;100381.38;4956813;28;20047;-82
2022/02/17 04:34:41;;;;;;;26.15;12.18;;;;;;;-8.48;63.00;100383.09;4966322;29;20083;-89
2022/02/17 04:37:08;;;;;;;23.35;10.93;;;;;;;-8.46;63.30;100383.97;4955603;29;20051;-80
2022/02/17 04:39:35;;;;;;;48.47;15.23;;;;;;;-8.37;63.52;100376.34;4979367;28;20101;-81
2022/02/17 04:42:19;;;;;;;38.00;13.57;;;;;;;-8.27;63.01;100372.09;4957815;28;20047;-82
2022/02/17 04:44:50;;;;;;;38.35;15.77;;;;;;;-8.17;62.77;100374.81;4941676;29;20047;-81
2022/02/17 04:47:18;;;;;;;41.70;17.13;;;;;;;-8.23;62.12;100369.56;4961328;29;20138;-81
2022/02/17 04:49:44;;;;;;;35.38;15.30;;;;;;;-8.43;62.18;100377.13;4944290;29;20079;-81
2022/02/17 04:52:10;;;;;;;50.90;19.50;;;;;;;-8.43;63.04;100371.06;4972549;28;20051;-81
2022/02/17 04:54:37;;;;;;;52.45;19.02;;;;;;;-8.24;63.39;100369.53;4924122;29;20051;-81
2022/02/17 04:57:05;;;;;;;56.05;20.13;;;;;;;-8.06;63.21;100347.28;4956713;29;20063;-81
2022/02/17 04:59:35;;;;;;;57.53;21.65;;;;;;;-7.86;62.97;100344.94;4941462;29;20499;-83
2022/02/17 05:02:01;;;;;;;54.70;21.27;;;;;;;-7.69;62.22;100347.66;4924245;29;20135;-81
2022/02/17 05:04:34;;;;;;;59.03;23.23;;;;;;;-7.58;61.65;100346.06;4955969;28;20507;-86
2022/02/17 05:07:06;;;;;;;62.90;21.90;;;;;;;-7.55;61.75;100354.75;4972138;28;20046;-85
2022/02/17 05:09:33;;;;;;;63.67;25.27;;;;;;;-7.50;61.71;100353.03;4941060;29;20047;-83
2022/02/17 05:12:00;;;;;;;62.00;24.35;;;;;;;-7.31;61.81;100352.34;4979452;28;20055;-85
2022/02/17 05:14:26;;;;;;;62.88;25.30;;;;;;;-7.20;61.37;100352.44;4966530;29;20043;-83
2022/02/17 05:16:54;;;;;;;62.50;25.77;;;;;;;-7.16;61.30;100349.88;4967018;28;20050;-79
2022/02/17 05:19:23;;;;;;;65.63;26.63;;;;;;;-7.26;60.68;100353.25;4977397;28;20046;-81
2022/02/17 05:22:09;;;;;;;60.97;24.13;;;;;;;-7.20;60.59;100350.69;4972287;28;20447;-80
2022/02/17 05:24:54;;;;;;;51.95;22.52;;;;;;;-7.06;60.53;100352.56;4958557;28;20035;-80
2022/02/17 05:27:49;;;;;;;55.85;24.10;;;;;;;-7.13;60.08;100355.09;4948422;28;20052;-82
2022/02/17 05:30:27;;;;;;;62.92;21.98;;;;;;;-7.09;59.94;100351.66;4977649;28;20071;-83
2022/02/17 05:33:13;;;;;;;43.65;18.08;;;;;;;-7.10;59.92;100349.91;4971851;28;20407;-80
2022/02/17 05:36:14;;;;;;;47.42;18.45;;;;;;;-7.19;59.89;100347.25;4936868;29;20159;-80
2022/02/17 05:39:01;;;;;;;45.40;17.88;;;;;;;-7.22;59.67;100355.03;4952342;28;20054;-80
2022/02/17 05:41:45;;;;;;;41.92;17.83;;;;;;;-7.36;59.88;100346.25;4955336;28;20047;-81
2022/02/17 05:44:11;;;;;;;35.70;16.42;;;;;;;-7.27;60.17;100351.50;4970095;28;20045;-81
2022/02/17 05:46:37;;;;;;;41.03;15.30;;;;;;;-7.40;59.45;100349.69;4938020;29;20455;-81
2022/02/17 05:49:04;;;;;;;35.92;15.45;;;;;;;-7.27;59.86;100356.69;4938042;29;20422;-81
2022/02/17 05:51:50;;;;;;;28.70;13.48;;;;;;;-7.46;58.83;100360.88;4967891;28;20141;-81
2022/02/17 05:54:16;;;;;;;31.45;13.70;;;;;;;-7.49;58.91;100347.84;4953978;28;20055;-82
2022/02/17 05:56:42;;;;;;;26.60;11.52;;;;;;;-7.39;59.43;100341.88;4954368;28;20542;-81
2022/02/17 05:59:08;;;;;;;28.98;13.05;;;;;;;-7.28;59.11;100352.38;4969793;28;20074;-80
2022/02/17 06:01:35;;;;;;;20.50;8.45;;;;;;;-7.27;58.60;100356.69;4969833;28;20522;-84
2022/02/17 06:04:07;;;;;;;19.00;9.05;;;;;;;-7.40;58.27;100344.50;4955443;28;20491;-83
2022/02/17 06:06:53;;;;;;;25.45;10.82;;;;;;;-7.37;57.80;100354.88;4954587;29;20085;-82
2022/02/17 06:09:19;;;;;;;17.65;7.47;;;;;;;-7.41;57.16;100353.09;4953671;28;20392;-81
2022/02/17 06:11:45;;;;;;;20.77;9.60;;;;;;;-7.38;57.02;100348.81;4954887;28;20134;-81
2022/02/17 06:14:11;;;;;;;23.67;10.27;;;;;;;-7.28;57.27;100347.19;4969764;28;20124;-82
2022/02/17 06:16:37;;;;;;;28.83;11.48;;;;;;;-7.31;56.72;100349.75;4954060;29;20051;-81
2022/02/17 06:19:04;;;;;;;17.92;8.00;;;;;;;-7.35;56.40;100345.38;4937926;29;20047;-82
2022/02/17 06:21:30;;;;;;;29.13;9.98;;;;;;;-7.37;55.79;100339.28;4969598;28;20534;-80
2022/02/17 06:23:56;;;;;;;29.60;8.93;;;;;;;-7.24;55.75;100351.53;4953334;28;20444;-81
2022/02/17 06:26:22;;;;;;;26.73;11.45;;;;;;;-7.28;55.11;100347.19;4953722;28;20047;-79
2022/02/17 06:28:48;;;;;;;26.42;11.55;;;;;;;-7.27;55.50;100356.69;4953666;28;20114;-82
2022/02/17 06:31:15;;;;;;;27.95;11.68;;;;;;;-7.23;55.74;100353.28;4953853;28;20103;-82
2022/02/17 06:33:41;;;;;;;22.00;10.10;;;;;;;-7.55;55.68;100365.13;4953362;28;20066;-81
2022/02/17 06:36:08;;;;;;;26.88;10.85;;;;;;;-7.50;56.09;100358.25;4925027;28;20499;-80
2022/02/17 06:38:35;;;;;;;32.15;13.05;;;;;;;-7.50;56.53;100347.84;4957804;29;20046;-82
2022/02/17 06:41:01;;;;;;;27.92;11.43;;;;;;;-7.15;56.42;100356.78;4958433;28;20117;-82
2022/02/17 06:43:28;;;;;;;33.25;12.38;;;;;;;-7.04;55.54;100350.81;4973044;28;20047;-81
2022/02/17 06:45:54;;;;;;;27.92;12.10;;;;;;;-7.06;55.31;100353.41;4973225;28;20047;-82
2022/02/17 06:48:20;;;;;;;36.22;15.18;;;;;;;-6.99;55.12;100338.75;4957104;28;20054;-80
2022/02/17 06:50:48;;;;;;;28.75;12.38;;;;;;;-6.80;54.52;100340.59;4958219;28;20125;-82
2022/02/17 06:53:15;;;;;;;;;;;;;;;-7.01;54.63;100337.84;4957853;28;20043;-81
2022/02/17 06:55:41;;;;;;;31.75;14.65;;;;;;;-7.01;55.08;100337.84;4959154;28;19926;-82
2022/02/17 06:58:07;;;;;;;35.92;16.10;;;;;;;-6.95;55.03;100335.31;4977707;28;20085;-80
2022/02/17 07:00:33;;;;;;;43.03;15.23;;;;;;;-6.84;55.08;100346.63;4977185;28;20125;-82
2022/02/17 07:02:59;;;;;;;52.33;17.40;;;;;;;-6.73;55.31;100344.06;4960960;28;20049;-80
2022/02/17 07:05:26;;;;;;;45.90;17.50;;;;;;;-6.87;54.58;100337.09;4960824;28;20046;-82
2022/02/17 07:07:52;;;;;;;53.75;17.98;;;;;;;-6.78;54.86;100338.84;4945175;28;20065;-82
2022/02/17 07:10:54;;;;;;;49.30;19.58;;;;;;;-6.71;55.11;100343.25;4961074;28;20081;-82
2022/02/17 07:13:28;;;;;;;54.17;19.17;;;;;;;-6.42;55.03;100339.94;4955226;28;20142;-82
2022/02/17 07:16:13;;;;;;;48.65;20.92;;;;;;;-6.14;54.63;100343.50;4949733;28;20061;-84
2022/02/17 07:18:44;;;;;;;54.67;20.83;;;;;;;-6.01;54.07;100337.50;4977453;28;20528;-82
2022/02/17 07:21:10;;;;;;;53.00;21.20;;;;;;;-6.20;53.29;100336.56;4928349;28;20129;-83
2022/02/17 07:23:36;;;;;;;52.45;20.75;;;;;;;-5.97;53.71;100348.78;4959840;28;20074;-81
2022/02/17 07:26:02;;;;;;;66.15;24.77;;;;;;;-5.77;53.30;100336.63;4959857;28;20449;-83
2022/02/17 07:28:28;;;;;;;66.40;22.52;;;;;;;-5.61;52.78;100335.78;4961063;28;20046;-81
2022/02/17 07:30:56;;;;;;;62.60;23.08;;;;;;;-5.68;52.60;100326.25;4961708;28;20042;-82
2022/02/17 07:33:24;;;;;;;73.50;25.00;;;;;;;-5.25;53.17;100333.22;4961916;28;20050;-81
2022/02/17 07:35:50;;;;;;;68.68;26.67;;;;;;;-5.06;52.30;100327.13;4961221;28;20046;-82
2022/02/17 07:38:16;;;;;;;61.05;24.35;;;;;;;-4.98;51.59;100329.72;4959137;28;20054;-82
2022/02/17 07:40:42;;;;;;;61.15;21.92;;;;;;;-4.81;51.10;100334.91;4959428;28;20456;-81
2022/02/17 07:43:09;;;;;;;41.08;17.25;;;;;;;-4.96;50.79;100338.41;4959684;28;20073;-82
2022/02/17 07:45:37;;;;;;;46.10;17.80;;;;;;;-5.13;50.94;100336.69;4974630;28;20063;-82
2022/02/17 07:48:04;;;;;;;38.60;15.30;;;;;;;-5.27;51.51;100332.34;4943213;28;20522;-83
2022/02/17 07:50:30;;;;;;;54.17;20.67;;;;;;;-5.32;51.76;100324.53;4959180;28;20046;-82
2022/02/17 07:53:14;;;;;;;40.35;16.52;;;;;;;-5.18;51.88;100335.81;4975376;28;20560;-82
2022/02/17 07:55:41;;;;;;;48.67;18.65;;;;;;;-5.10;51.55;100325.38;4959377;28;20101;-81
2022/02/17 07:58:14;;;;;;;52.03;20.17;;;;;;;-4.96;52.08;100328.84;4959312;28;20521;-82
2022/02/17 08:00:41;;;;;;;46.83;19.13;;;;;;;-5.10;50.93;100329.75;4960389;28;20051;-83
2022/02/17 08:03:26;;;;;;;53.15;19.60;;;;;;;-5.23;51.56;100324.53;4976660;28;20053;-82
2022/02/17 08:05:52;;;;;;;44.13;19.58;;;;;;;-5.36;51.38;100328.00;4959111;28;20051;-81
2022/02/17 08:08:19;;;;;;;26.13;11.25;;;;;;;-5.26;51.74;100339.31;4927213;28;20171;-83
2022/02/17 08:10:46;;;;;;;42.80;15.90;;;;;;;-5.28;51.84;100321.03;4959444;28;20043;-86
2022/02/17 08:13:12;;;;;;;29.50;11.75;;;;;;;-5.24;51.96;100327.13;4943405;28;20046;-82
2022/02/17 08:15:39;;;;;;;32.03;14.05;;;;;;;-5.23;52.00;100328.84;4943006;28;20130;-82
2022/02/17 08:18:05;;;;;;;31.35;13.60;;;;;;;-5.37;52.13;100321.06;4927060;28;20043;-82
2022/02/17 08:20:31;;;;;;;36.92;14.45;;;;;;;-5.34;52.74;100328.00;4959076;28;20065;-82
2022/02/17 08:22:58;;;;;;;32.72;14.05;;;;;;;-5.15;52.00;100306.28;4976187;28;20414;-81
2022/02/17 08:25:24;;;;;;;16.98;9.65;;;;;;;-5.03;51.72;100315.84;4976117;28;20141;-82
2022/02/17 08:27:50;;;;;;;28.33;11.25;;;;;;;-4.95;52.10;100311.47;4943189;28;20049;-82
2022/02/17 08:30:17;;;;;;;36.15;13.57;;;;;;;-4.99;52.40;100312.34;4958878;28;20050;-82
2022/02/17 08:32:43;;;;;;;21.63;10.95;;;;;;;-4.98;52.02;100308.84;4974677;28;20043;-82
2022/02/17 08:35:10;;;;;;;30.30;13.75;;;;;;;-4.83;52.31;100298.41;4942677;28;20532;-82
2022/02/17 08:37:38;;;;;;;31.38;13.43;;;;;;;-4.56;51.82;100296.59;4958864;28;20042;-81
2022/02/17 08:40:05;;;;;;;31.48;14.27;;;;;;;-4.12;52.08;100292.91;4958713;28;20043;-83
2022/02/17 08:42:31;;;;;;;30.77;13.23;;;;;;;-4.03;51.10;100298.09;4964527;28;20069;-81
2022/02/17 08:44:57;;;;;;;32.83;13.40;;;;;;;-4.10;50.68;100291.16;4971852;28;20047;-80
2022/02/17 08:47:23;;;;;;;31.58;12.50;;;;;;;-4.03;50.57;100283.28;4968452;28;20050;-82
2022/02/17 08:49:49;;;;;;;38.58;15.38;;;;;;;-3.69;50.88;100277.84;4939895;28;20042;-81
2022/02/17 08:52:38;;;;;;;35.20;12.25;;;;;;;-3.49;49.23;100282.94;4969455;28;20158;-80
2022/02/17 08:55:05;;;;;;;30.73;13.55;;;;;;;-3.58;49.46;100272.53;4963004;28;20542;-80
2022/02/17 08:57:32;;;;;;;25.88;11.32;;;;;;;-3.43;49.72;100275.03;4944637;28;20062;-83
2022/02/17 08:59:58;;;;;;;33.85;14.25;;;;;;;-3.51;49.43;100274.22;4926751;28;20049;-80
2022/02/17 09:02:24;;;;;;;31.23;14.32;;;;;;;-3.53;49.27;100273.38;4957810;28;20078;-83
2022/02/17 09:04:50;;;;;;;31.17;13.02;;;;;;;-3.36;49.51;100266.25;4973640;28;20078;-82
2022/02/17 09:07:16;;;;;;;27.75;11.93;;;;;;;-3.33;48.96;100266.22;4941680;28;20538;-83
2022/02/17 09:09:42;;;;;;;31.20;14.20;;;;;;;-3.46;48.91;100254.13;4957382;28;20106;-84
2022/02/17 09:12:10;;;;;;;30.67;13.23;;;;;;;-3.39;49.51;100266.28;4948925;28;20065;-81
2022/02/17 09:14:36;;;;;;;39.13;15.38;;;;;;;-3.41;48.75;100254.97;4972099;28;20030;-81
2022/02/17 09:17:04;;;;;;;35.67;14.68;;;;;;;-3.55;49.13;100255.09;4963247;28;20058;-81
2022/02/17 09:19:30;;;;;;;29.92;13.73;;;;;;;-3.34;49.38;100258.41;4942675;28;20054;-81
2022/02/17 09:21:58;;;;;;;31.98;15.27;;;;;;;-3.29;48.69;100265.31;4942217;28;20434;-82
2022/02/17 09:24:24;;;;;;;29.17;14.27;;;;;;;-3.45;48.69;100266.34;4942666;28;20055;-84
2022/02/17 09:26:49;;;;;;;31.02;13.23;;;;;;;-3.40;49.37;100253.22;4958191;28;20181;-80
2022/02/17 09:29:15;;;;;;;31.38;13.45;;;;;;;-3.26;49.20;100265.31;4974199;28;20047;-82
2022/02/17 09:31:41;;;;;;;36.75;13.57;;;;;;;-3.09;48.29;100272.97;4973859;28;20046;-81
2022/02/17 09:34:10;;;;;;;34.70;13.20;;;;;;;-3.23;48.54;100267.88;4957461;28;20042;-81
2022/02/17 09:36:38;;;;;;;30.15;13.50;;;;;;;-3.15;48.42;100272.19;4957362;28;20050;-82
2022/02/17 09:39:05;;;;;;;30.92;11.43;;;;;;;-3.13;48.46;100263.44;4941314;28;20100;-81
2022/02/17 09:41:30;;;;;;;30.80;13.82;;;;;;;-2.99;48.42;100271.16;4957096;28;20081;-82
2022/02/17 09:44:03;;;;;;;28.33;12.13;;;;;;;-2.88;48.31;100274.53;4976334;28;20091;-82
2022/02/17 09:46:29;;;;;;;34.22;13.20;;;;;;;-2.96;47.63;100266.75;4925507;28;20053;-81
2022/02/17 09:49:01;;;;;;;28.98;12.05;;;;;;;-2.88;47.80;100263.19;4960293;28;20054;-82
2022/02/17 09:51:28;;;;;;;32.58;14.93;;;;;;;-2.65;47.43;100257.69;4975886;28;20097;-82
2022/02/17 09:53:54;;;;;;;36.63;14.35;;;;;;;-2.72;47.69;100249.91;4956828;28;20494;-81
2022/02/17 09:56:22;;;;;;;31.20;13.48;;;;;;;-2.99;47.39;100265.91;4940853;28;20066;-82
2022/02/17 09:58:49;;;;;;;31.52;12.98;;;;;;;-3.13;48.40;100262.56;4973316;28;20047;-81
2022/02/17 10:01:26;;;;;;;30.63;13.18;;;;;;;-3.32;48.60;100256.63;4941213;28;20039;-81
2022/02/17 10:04:10;;;;;;;31.23;13.38;;;;;;;-3.45;49.28;100250.66;4909665;28;20550;-81
2022/02/17 10:06:50;;;;;;;20.65;10.00;;;;;;;-3.59;49.64;100249.91;4940898;28;20050;-83
2022/02/17 10:09:17;;;;;;;36.97;14.30;;;;;;;-3.60;49.96;100237.72;4956563;28;20134;-82
2022/02/17 10:11:44;;;;;;;38.13;15.90;;;;;;;-3.53;50.06;100236.81;4973542;28;20046;-81
2022/02/17 10:14:15;;;;;;;40.20;16.15;;;;;;;-3.31;49.83;100243.56;4957614;28;20057;-81
2022/02/17 10:16:53;;;;;;;34.30;15.32;;;;;;;-3.25;49.96;100242.63;4957400;28;20050;-80
2022/02/17 10:19:39;;;;;;;39.67;15.48;;;;;;;-3.67;49.59;100235.16;4941105;28;20102;-82
2022/02/17 10:22:13;;;;;;;40.10;16.00;;;;;;;-3.98;50.76;100225.81;4942057;28;20177;-82
2022/02/17 10:24:46;;;;;;;37.00;14.13;;;;;;;-3.65;50.94;100227.28;4925329;28;20050;-83
2022/02/17 10:27:25;;;;;;;49.05;17.52;;;;;;;-3.43;50.29;100225.34;4956908;28;20144;-82
2022/02/17 10:30:09;;;;;;;30.10;13.85;;;;;;;-3.56;49.97;100232.44;4956825;28;20046;-82
2022/02/17 10:32:51;;;;;;;43.38;16.88;;;;;;;-3.20;50.95;100231.25;4926410;28;20141;-81
2022/02/17 10:35:18;;;;;;;44.65;17.50;;;;;;;-3.02;50.24;100229.31;4957772;28;20046;-80
2022/02/17 10:37:48;;;;;;;48.40;18.98;;;;;;;-2.60;50.24;100225.34;4975550;28;20046;-82
2022/02/17 10:40:22;;;;;;;41.35;16.55;;;;;;;-2.20;48.97;100232.69;4962273;28;20046;-81
2022/02/17 10:43:08;;;;;;;43.90;16.33;;;;;;;-2.50;48.39;100218.25;4959203;28;20050;-83
2022/02/17 10:45:35;;;;;;;46.53;17.00;;;;;;;-2.26;48.12;100225.78;4962134;28;20105;-80
2022/02/17 10:48:17;;;;;;;39.75;17.48;;;;;;;-1.91;48.13;100229.66;4956943;28;20077;-81
2022/02/17 10:50:46;;;;;;;38.67;16.75;;;;;;;-1.85;47.72;100221.69;4943071;28;20153;-84
2022/02/17 10:53:19;;;;;;;37.58;17.02;;;;;;;-1.88;47.11;100216.50;4960175;28;20065;-82
2022/02/17 10:55:56;;;;;;;35.72;15.32;;;;;;;-2.18;47.42;100220.44;4941590;28;20137;-82
2022/02/17 10:58:29;;;;;;;40.00;13.00;;;;;;;-2.28;47.76;100210.97;4956435;28;20073;-81
2022/02/17 11:00:57;;;;;;;39.40;15.68;;;;;;;-2.52;48.25;100230.47;4956246;28;20450;-80
2022/02/17 11:03:24;;;;;;;54.42;18.10;;;;;;;-2.70;48.84;100216.75;4956281;28;20061;-81
2022/02/17 11:05:50;;;;;;;38.58;14.55;;;;;;;-3.01;49.37;100220.59;4940525;28;20039;-81
2022/02/17 11:08:16;;;;;;;40.95;16.20;;;;;;;-3.05;49.55;100213.66;4940964;28;20050;-81
2022/02/17 11:10:43;;;;;;;49.63;17.40;;;;;;;-3.17;50.44;100219.88;4956631;28;20047;-80
2022/02/17 11:13:12;;;;;;;33.47;15.68;;;;;;;-3.19;50.29;100196.38;4940419;28;20043;-81
2022/02/17 11:15:39;;;;;;;35.50;15.52;;;;;;;-3.25;50.95;100211.25;4940531;28;20133;-81
2022/02/17 11:18:06;;;;;;;38.83;15.27;;;;;;;-3.26;50.94;100205.16;4956268;28;20510;-80
2022/02/17 11:20:34;;;;;;;32.03;13.07;;;;;;;-3.30;50.71;100195.63;4957400;28;20202;-80
2022/02/17 11:23:00;;;;;;;35.75;16.83;;;;;;;-3.10;51.36;100194.53;4959620;28;20042;-81